Time;durP1;ratioP1;P1;durP2;ratioP2;P2;SDS_P1;SDS_P2;PMS_P1;PMS_P2;Temp;Humidity;BMP_temperature;BMP_pressure;BME280_temperature;BME280_humidity;BME280_pressure;Samples;Min_cycle;Max_cycle;Signal;HPM_P1;HPM_P2
2020/12/06 00:01:26;;;;;;;13.60;7.13;;;;;;;1.57;84.90;98707.69;5074309;28;20181;-77
2020/12/06 00:03:52;;;;;;;9.95;7.28;;;;;;;1.56;84.86;98698.94;5073851;28;20048;-77
2020/12/06 00:06:22;;;;;;;10.77;6.40;;;;;;;1.52;84.97;98693.91;5073548;28;20052;-77
2020/12/06 00:08:50;;;;;;;11.77;7.40;;;;;;;1.53;84.92;98690.34;5073284;28;20400;-77
2020/12/06 00:11:18;;;;;;;15.27;9.57;;;;;;;1.59;84.99;98705.84;5074419;28;20140;-77
2020/12/06 00:13:45;;;;;;;8.82;6.32;;;;;;;1.48;85.21;98691.41;5074654;28;20109;-78
2020/12/06 00:16:16;;;;;;;12.80;7.18;;;;;;;1.53;84.74;98709.59;5074478;28;20055;-77
2020/12/06 00:18:43;;;;;;;14.73;7.68;;;;;;;1.54;85.09;98707.81;5074540;28;20056;-78
2020/12/06 00:21:11;;;;;;;14.27;7.13;;;;;;;1.52;85.12;98693.91;5073642;28;20350;-78
2020/12/06 00:23:37;;;;;;;12.23;7.22;;;;;;;1.47;85.26;98684.44;5074286;28;20336;-77
2020/12/06 00:26:03;;;;;;;14.57;7.70;;;;;;;1.52;85.16;98701.78;5074431;28;20056;-77
2020/12/06 00:28:30;;;;;;;16.85;8.38;;;;;;;1.52;85.16;98701.78;5074367;28;20052;-77
2020/12/06 00:30:56;;;;;;;15.38;8.65;;;;;;;1.53;84.84;98701.69;5073263;28;20044;-77
2020/12/06 00:33:22;;;;;;;12.90;7.72;;;;;;;1.51;85.10;98697.47;5074254;28;20052;-77
2020/12/06 00:35:48;;;;;;;15.25;8.52;;;;;;;1.54;85.34;98689.41;5073311;28;20048;-75
2020/12/06 00:38:14;;;;;;;12.98;8.65;;;;;;;1.41;85.60;98676.00;5073085;28;20049;-75
2020/12/06 00:40:40;;;;;;;16.48;8.43;;;;;;;1.52;85.49;98689.47;5074429;28;20056;-77
2020/12/06 00:43:07;;;;;;;13.38;8.23;;;;;;;1.49;85.58;98694.91;5074350;28;20053;-77
2020/12/06 00:45:34;;;;;;;13.98;8.80;;;;;;;1.49;85.55;98705.41;5074063;28;20056;-78
2020/12/06 00:48:00;;;;;;;17.83;9.52;;;;;;;1.32;85.94;98678.13;5076976;28;20056;-77
2020/12/06 00:50:27;;;;;;;17.77;9.32;;;;;;;1.42;85.63;98699.56;5077794;28;20370;-78
2020/12/06 00:52:54;;;;;;;10.85;8.00;;;;;;;1.33;85.27;98690.38;5077989;28;20417;-77
2020/12/06 00:55:21;;;;;;;16.63;8.90;;;;;;;1.31;85.86;98694.00;5077077;28;20075;-78
2020/12/06 00:57:47;;;;;;;11.90;8.77;;;;;;;1.25;85.57;98676.72;5077984;28;20044;-77
2020/12/06 01:00:13;;;;;;;17.00;8.85;;;;;;;1.26;86.13;98683.69;5076385;28;20060;-78
2020/12/06 01:02:40;;;;;;;16.35;8.90;;;;;;;1.24;86.00;98684.69;5060098;28;20147;-79
2020/12/06 01:05:07;;;;;;;14.18;9.30;;;;;;;1.24;86.11;98682.06;5077748;28;20052;-79
2020/12/06 01:07:36;;;;;;;16.95;9.30;;;;;;;1.04;86.62;98666.28;5076266;28;20049;-77
2020/12/06 01:10:04;;;;;;;15.85;10.27;;;;;;;1.32;86.57;98699.16;5076384;28;20052;-78
2020/12/06 01:12:30;;;;;;;15.57;10.35;;;;;;;1.34;86.55;98697.31;5077266;28;20139;-77
2020/12/06 01:14:57;;;;;;;13.98;10.02;;;;;;;1.35;86.72;98693.78;5077468;28;20048;-77
2020/12/06 01:17:23;;;;;;;18.42;11.65;;;;;;;1.28;86.88;98692.34;5077206;28;20102;-77
2020/12/06 01:19:49;;;;;;;15.07;10.85;;;;;;;1.33;86.77;98695.63;5077256;28;20456;-78
2020/12/06 01:22:15;;;;;;;15.18;10.88;;;;;;;1.24;87.05;98674.19;5077392;28;20105;-76
2020/12/06 01:24:43;;;;;;;16.25;11.73;;;;;;;1.34;86.62;98697.31;5077031;28;20044;-77
2020/12/06 01:27:09;;;;;;;20.25;13.48;;;;;;;1.35;86.80;98692.91;5076807;28;20045;-77
2020/12/06 01:29:36;;;;;;;17.70;13.20;;;;;;;1.29;87.92;98694.06;5059718;28;20049;-77
2020/12/06 01:32:02;;;;;;;19.50;13.85;;;;;;;1.14;87.82;98657.97;5077291;28;20048;-77
2020/12/06 01:34:28;;;;;;;21.83;14.40;;;;;;;1.32;87.91;98698.31;5076684;28;20045;-77
2020/12/06 01:36:55;;;;;;;17.83;13.68;;;;;;;1.37;87.82;98698.97;5075892;28;20121;-77
2020/12/06 01:39:21;;;;;;;24.63;16.50;;;;;;;1.39;87.94;98693.63;5076776;28;20048;-76
2020/12/06 01:41:47;;;;;;;25.05;16.63;;;;;;;1.45;87.96;98696.81;5076702;28;20418;-77
2020/12/06 01:44:13;;;;;;;24.92;16.20;;;;;;;1.33;88.08;98679.00;5076858;28;20052;-77
2020/12/06 01:46:40;;;;;;;24.95;17.15;;;;;;;1.47;87.97;98716.00;5076574;28;20060;-77
2020/12/06 01:49:06;;;;;;;25.73;17.13;;;;;;;1.45;88.02;98720.47;5076836;28;20090;-76
2020/12/06 01:51:34;;;;;;;26.02;18.33;;;;;;;1.45;88.51;98720.47;5076720;28;20059;-77
2020/12/06 01:54:03;;;;;;;22.98;17.20;;;;;;;1.40;88.53;98706.69;5076375;28;20057;-77
2020/12/06 01:56:30;;;;;;;26.73;18.00;;;;;;;1.47;88.25;98715.16;5076615;28;20053;-77
2020/12/06 01:58:56;;;;;;;21.33;16.58;;;;;;;1.44;88.21;98708.25;5075847;28;20110;-76
2020/12/06 02:01:22;;;;;;;25.80;17.27;;;;;;;1.47;88.03;98713.38;5076219;28;20052;-76
2020/12/06 02:03:52;;;;;;;33.20;17.88;;;;;;;1.28;88.21;98687.09;5076149;28;20048;-77
2020/12/06 02:06:18;;;;;;;26.83;18.63;;;;;;;1.56;88.03;98732.25;5076646;28;20083;-77
2020/12/06 02:08:47;;;;;;;28.33;18.70;;;;;;;1.46;87.77;98726.56;5075066;28;20044;-77
2020/12/06 02:11:27;;;;;;;25.40;18.23;;;;;;;1.35;87.98;98704.28;5075461;28;20052;-77
2020/12/06 02:13:54;;;;;;;24.90;17.95;;;;;;;1.46;88.13;98711.66;5075178;28;20140;-78
2020/12/06 02:16:20;;;;;;;28.83;17.85;;;;;;;1.43;88.65;98706.56;5076137;28;20060;-76
2020/12/06 02:18:46;;;;;;;29.48;19.75;;;;;;;1.43;88.44;98696.06;5058626;28;20071;-76
2020/12/06 02:21:12;;;;;;;28.20;19.60;;;;;;;1.46;88.62;98684.50;5075239;28;20048;-77
2020/12/06 02:23:39;;;;;;;31.33;18.83;;;;;;;1.44;88.51;98676.72;5075754;28;20122;-77
2020/12/06 02:26:05;;;;;;;28.83;19.35;;;;;;;1.55;88.06;98676.19;5074919;28;20446;-78
2020/12/06 02:28:31;;;;;;;28.13;19.00;;;;;;;1.21;88.45;98617.34;5074575;28;20044;-77
2020/12/06 02:30:57;;;;;;;29.63;19.15;;;;;;;1.45;88.32;98664.41;5075802;28;20426;-77
2020/12/06 02:33:24;;;;;;;34.38;20.08;;;;;;;1.43;88.30;98677.66;5076029;28;20053;-77
2020/12/06 02:35:50;;;;;;;27.80;19.75;;;;;;;1.38;88.26;98679.63;5075941;28;20044;-78
2020/12/06 02:38:16;;;;;;;31.92;20.08;;;;;;;1.30;88.43;98671.25;5075778;28;20056;-78
2020/12/06 02:40:42;;;;;;;31.02;20.92;;;;;;;1.33;88.43;98676.34;5076119;28;20105;-77
2020/12/06 02:43:08;;;;;;;35.40;23.33;;;;;;;1.39;88.45;98689.22;5058087;28;20383;-77
2020/12/06 02:45:34;;;;;;;35.08;23.95;;;;;;;1.35;88.48;98682.38;5075679;28;20059;-78
2020/12/06 02:48:00;;;;;;;31.50;23.65;;;;;;;1.35;88.62;98687.66;5057884;28;20094;-78
2020/12/06 02:50:27;;;;;;;37.35;25.70;;;;;;;1.16;88.53;98658.75;5075514;28;20080;-77
2020/12/06 02:52:57;;;;;;;34.10;23.75;;;;;;;1.32;88.55;98687.81;5075647;28;20055;-77
2020/12/06 02:55:27;;;;;;;32.22;22.70;;;;;;;1.34;88.55;98702.59;5075522;28;20045;-77
2020/12/06 02:57:54;;;;;;;33.80;22.55;;;;;;;1.34;88.91;98696.47;5075433;28;20056;-77
2020/12/06 03:00:20;;;;;;;35.72;23.30;;;;;;;1.37;88.99;98696.34;5075255;28;20063;-77
2020/12/06 03:02:46;;;;;;;35.25;24.15;;;;;;;1.39;89.38;98694.47;5075370;28;20430;-78
2020/12/06 03:05:13;;;;;;;33.13;23.63;;;;;;;1.37;89.21;98696.34;5075267;28;20354;-78
2020/12/06 03:07:40;;;;;;;36.78;24.13;;;;;;;1.45;89.33;98691.56;5075228;28;20048;-78
2020/12/06 03:10:06;;;;;;;37.70;24.05;;;;;;;1.46;89.36;98685.38;5075252;28;20056;-78
2020/12/06 03:12:34;;;;;;;35.60;24.45;;;;;;;1.34;89.65;98688.56;5075456;28;20105;-77
2020/12/06 03:15:00;;;;;;;37.85;23.42;;;;;;;1.41;89.25;98687.34;5075075;28;20056;-77
2020/12/06 03:17:27;;;;;;;36.10;22.65;;;;;;;1.37;89.58;98700.72;5075064;28;20052;-77
2020/12/06 03:19:53;;;;;;;35.13;23.35;;;;;;;1.40;89.51;98701.44;5074192;28;20101;-78
2020/12/06 03:22:19;;;;;;;34.25;21.38;;;;;;;1.37;89.81;98712.09;5075308;28;20048;-78
2020/12/06 03:24:47;;;;;;;32.58;22.23;;;;;;;1.24;89.67;98690.78;5075464;28;20053;-76
2020/12/06 03:27:13;;;;;;;36.90;23.15;;;;;;;1.27;90.29;98695.91;5074924;28;20131;-76
2020/12/06 03:29:39;;;;;;;37.08;23.77;;;;;;;1.27;90.50;98695.03;5074962;28;20079;-78
2020/12/06 03:32:06;;;;;;;37.53;23.25;;;;;;;1.30;90.34;98684.41;5074919;28;20052;-77
2020/12/06 03:34:32;;;;;;;37.33;23.15;;;;;;;1.31;90.06;98686.09;5073800;28;20048;-76
2020/12/06 03:36:58;;;;;;;33.85;22.90;;;;;;;1.35;90.22;98695.53;5074171;28;20061;-77
2020/12/06 03:39:24;;;;;;;34.97;22.65;;;;;;;1.24;90.31;98676.81;5057401;28;20056;-77
2020/12/06 03:41:50;;;;;;;33.30;23.05;;;;;;;1.37;90.10;98685.81;5075122;28;20056;-77
2020/12/06 03:44:16;;;;;;;34.97;22.70;;;;;;;1.38;90.35;98687.53;5074993;28;20056;-79
2020/12/06 03:46:42;;;;;;;37.15;23.92;;;;;;;1.39;90.10;98685.72;5074873;28;20491;-78
2020/12/06 03:49:08;;;;;;;35.17;23.73;;;;;;;1.35;90.16;98679.75;5074060;28;20053;-77
2020/12/06 03:51:34;;;;;;;37.10;24.17;;;;;;;1.45;89.87;98690.69;5075067;28;20057;-79
2020/12/06 03:54:00;;;;;;;38.47;24.27;;;;;;;1.40;89.86;98675.16;5074913;28;20477;-77
2020/12/06 03:56:26;;;;;;;36.70;23.67;;;;;;;1.45;89.94;98683.69;5075087;28;20048;-79
2020/12/06 03:58:52;;;;;;;40.30;23.80;;;;;;;1.51;89.79;98671.16;5074931;28;20396;-78
2020/12/06 04:01:19;;;;;;;35.00;23.33;;;;;;;1.49;89.84;98679.13;5074694;28;20052;-78
2020/12/06 04:03:45;;;;;;;33.40;22.08;;;;;;;1.45;89.57;98661.78;5074906;28;20071;-78
2020/12/06 04:06:11;;;;;;;34.63;23.25;;;;;;;1.53;89.72;98664.03;5073714;28;20367;-77
2020/12/06 04:08:37;;;;;;;36.33;23.42;;;;;;;1.48;89.84;98664.28;5074839;28;20049;-77
2020/12/06 04:11:05;;;;;;;32.60;22.25;;;;;;;1.53;89.48;98662.25;5074478;28;20044;-78
2020/12/06 04:13:32;;;;;;;35.00;24.15;;;;;;;1.53;89.71;98669.31;5075089;28;20048;-77
2020/12/06 04:15:58;;;;;;;41.17;24.92;;;;;;;1.48;89.46;98657.22;5074854;28;20053;-79
2020/12/06 04:18:25;;;;;;;36.08;23.15;;;;;;;1.55;89.50;98672.72;5074085;28;20045;-77
2020/12/06 04:20:51;;;;;;;35.58;24.63;;;;;;;1.49;89.66;98663.34;5074767;28;20060;-78
2020/12/06 04:23:17;;;;;;;35.42;22.90;;;;;;;1.54;89.73;98671.00;5078837;28;20052;-77
2020/12/06 04:25:44;;;;;;;36.17;24.33;;;;;;;1.56;89.84;98677.91;5087682;28;20049;-76
2020/12/06 04:28:10;;;;;;;38.15;24.98;;;;;;;1.58;89.64;98690.97;5088190;28;20069;-75
2020/12/06 04:30:37;;;;;;;41.45;24.25;;;;;;;1.53;89.79;98691.19;5092359;28;20465;-76
2020/12/06 04:33:04;;;;;;;43.75;24.73;;;;;;;1.51;89.71;98679.88;5093167;28;20078;-75
2020/12/06 04:35:30;;;;;;;44.40;26.40;;;;;;;1.52;89.74;98689.47;5093419;28;20060;-76
2020/12/06 04:37:56;;;;;;;37.60;24.33;;;;;;;1.59;89.67;98695.31;5075579;28;20114;-76
2020/12/06 04:40:23;;;;;;;38.53;24.20;;;;;;;1.58;89.59;98693.63;5092731;28;20129;-76
2020/12/06 04:42:49;;;;;;;40.92;25.02;;;;;;;1.61;89.73;98693.44;5076138;28;20052;-78
2020/12/06 04:45:15;;;;;;;42.90;24.70;;;;;;;1.67;89.74;98682.63;5089075;28;20044;-78
2020/12/06 04:47:56;;;;;;;40.70;24.83;;;;;;;1.68;89.16;98688.78;5077167;28;20570;-77
2020/12/06 04:50:26;;;;;;;;;;;;;;;1.64;89.65;98693.31;5078497;28;20052;-77
2020/12/06 04:52:58;;;;;;;;;;;;;;;1.64;89.42;98688.06;5083170;28;19920;-77
2020/12/06 04:55:33;;;;;;;35.75;22.67;;;;;;;1.53;89.52;98675.41;5080339;28;19924;-78
2020/12/06 04:58:01;;;;;;;43.55;24.52;;;;;;;1.56;89.40;98677.03;5062271;28;20393;-78
2020/12/06 05:00:36;;;;;;;38.45;24.52;;;;;;;1.56;89.46;98679.66;5078004;28;20091;-78
2020/12/06 05:03:06;;;;;;;41.58;24.58;;;;;;;1.56;89.58;98674.41;5057758;28;20358;-76
2020/12/06 05:05:36;;;;;;;30.08;19.77;;;;;;;1.54;89.33;98666.63;5058768;28;20071;-76
2020/12/06 05:08:05;;;;;;;40.33;25.02;;;;;;;1.51;89.47;98671.16;5058783;28;20076;-76
2020/12/06 05:10:55;;;;;;;39.72;24.80;;;;;;;1.53;89.50;98667.50;5061219;28;20426;-78
2020/12/06 05:13:22;;;;;;;42.10;24.52;;;;;;;1.49;89.39;98676.50;5058074;28;20049;-76
2020/12/06 05:15:53;;;;;;;42.20;25.67;;;;;;;1.42;89.54;98673.28;5044001;28;20055;-77
2020/12/06 05:18:19;;;;;;;45.88;25.65;;;;;;;1.40;89.74;98684.78;5060652;28;20111;-77
2020/12/06 05:20:45;;;;;;;41.67;25.05;;;;;;;1.35;89.80;98688.50;5060138;28;20053;-77
2020/12/06 05:23:13;;;;;;;47.40;24.90;;;;;;;1.40;89.75;98684.78;5060796;28;20056;-77
2020/12/06 05:25:42;;;;;;;38.67;24.48;;;;;;;1.27;89.59;98653.84;5061591;28;20359;-76
2020/12/06 05:28:09;;;;;;;39.03;24.50;;;;;;;1.43;89.40;98684.66;5043723;28;20057;-78
2020/12/06 05:30:40;;;;;;;38.83;25.50;;;;;;;1.42;89.72;98675.91;5064983;28;20056;-76
2020/12/06 05:33:07;;;;;;;38.50;25.00;;;;;;;1.43;89.79;98663.63;5061678;28;20045;-77
2020/12/06 05:35:34;;;;;;;36.75;24.52;;;;;;;1.31;89.63;98644.88;5059919;28;20053;-77
2020/12/06 05:38:04;;;;;;;37.13;25.08;;;;;;;1.40;89.96;98659.38;5056364;28;20501;-77
2020/12/06 05:40:30;;;;;;;38.08;24.33;;;;;;;1.24;89.65;98629.50;5057134;28;20063;-77
2020/12/06 05:42:56;;;;;;;40.72;24.63;;;;;;;1.34;89.98;98643.88;5055526;28;20053;-75
2020/12/06 05:45:23;;;;;;;38.08;24.88;;;;;;;1.34;90.27;98647.38;5056999;28;20435;-77
2020/12/06 05:47:49;;;;;;;39.63;24.58;;;;;;;1.30;89.91;98631.84;5056906;28;20060;-77
2020/12/06 05:50:15;;;;;;;44.35;27.02;;;;;;;1.33;90.67;98647.44;5056752;28;20431;-76
2020/12/06 05:52:41;;;;;;;40.25;25.70;;;;;;;1.35;90.43;98649.06;5059122;28;20048;-76
2020/12/06 05:55:07;;;;;;;33.75;22.90;;;;;;;1.38;90.26;98655.09;5063095;28;20087;-77
2020/12/06 05:57:44;;;;;;;37.28;25.02;;;;;;;1.43;90.17;98661.88;5056495;28;20132;-77
2020/12/06 06:00:10;;;;;;;34.28;24.17;;;;;;;1.46;90.26;98655.59;5057525;28;20057;-77
2020/12/06 06:02:39;;;;;;;37.15;24.67;;;;;;;1.47;89.92;98650.25;5073057;28;20048;-80
2020/12/06 06:05:07;;;;;;;36.53;25.27;;;;;;;1.49;90.27;98655.47;5076492;28;20390;-73
2020/12/06 06:07:35;;;;;;;34.35;24.27;;;;;;;1.51;89.95;98655.41;5064115;28;20114;-75
2020/12/06 06:10:06;;;;;;;36.85;25.60;;;;;;;1.60;89.71;98663.69;5067064;28;20048;-76
2020/12/06 06:12:38;;;;;;;35.33;23.38;;;;;;;1.65;89.66;98663.47;5075374;28;20048;-78
2020/12/06 06:15:05;;;;;;;37.67;24.30;;;;;;;1.68;89.86;98670.34;5077890;28;20055;-76
2020/12/06 06:17:33;;;;;;;37.15;24.70;;;;;;;1.70;89.45;98671.97;5077062;28;20063;-77
2020/12/06 06:20:00;;;;;;;37.25;24.60;;;;;;;1.66;89.57;98664.28;5076887;28;20056;-75
2020/12/06 06:22:48;;;;;;;40.90;26.30;;;;;;;1.66;89.63;98674.81;5075956;28;20044;-76
2020/12/06 06:25:17;;;;;;;38.50;26.60;;;;;;;1.68;89.59;98679.09;5072775;28;20071;-75
2020/12/06 06:27:43;;;;;;;43.63;28.80;;;;;;;1.59;89.51;98661.13;5077059;28;20098;-75
2020/12/06 06:30:11;;;;;;;43.60;28.00;;;;;;;1.60;89.64;98655.81;5062067;28;20102;-76
2020/12/06 06:32:38;;;;;;;40.67;27.08;;;;;;;1.59;89.68;98658.50;5077026;28;20052;-74
2020/12/06 06:35:06;;;;;;;40.92;28.38;;;;;;;1.68;89.42;98660.66;5074551;28;20346;-78
2020/12/06 06:37:34;;;;;;;43.15;28.15;;;;;;;1.66;89.36;98659.91;5075840;28;20323;-76
2020/12/06 06:40:10;;;;;;;40.20;27.10;;;;;;;1.71;89.31;98663.16;5075977;28;20052;-79
2020/12/06 06:42:37;;;;;;;42.50;27.20;;;;;;;1.67;89.36;98664.22;5076046;28;20044;-77
2020/12/06 06:45:08;;;;;;;41.08;27.42;;;;;;;1.66;89.37;98673.06;5073396;28;20234;-76
2020/12/06 06:47:40;;;;;;;41.05;27.23;;;;;;;1.58;89.50;98657.63;5073821;28;20053;-77
2020/12/06 06:50:11;;;;;;;40.15;26.65;;;;;;;1.62;89.53;98661.84;5073379;28;20147;-77
2020/12/06 06:52:42;;;;;;;39.60;27.88;;;;;;;1.58;89.59;98656.81;5073527;28;20055;-77
2020/12/06 06:55:09;;;;;;;42.53;28.35;;;;;;;1.59;89.69;98645.34;5073988;28;20056;-77
2020/12/06 06:57:39;;;;;;;42.58;27.67;;;;;;;1.59;89.46;98638.28;5072937;28;20044;-77
2020/12/06 07:00:06;;;;;;;37.13;26.77;;;;;;;1.40;89.52;98625.19;5073532;28;20056;-77
2020/12/06 07:02:42;;;;;;;39.67;27.52;;;;;;;1.56;89.55;98662.13;5075027;28;20139;-77
2020/12/06 07:05:11;;;;;;;37.22;26.05;;;;;;;1.56;89.53;98666.50;5075652;28;20087;-76
2020/12/06 07:07:49;;;;;;;39.35;26.33;;;;;;;1.56;89.51;98653.38;5075081;28;20056;-77
2020/12/06 07:10:20;;;;;;;40.85;26.73;;;;;;;1.54;89.47;98657.84;5075147;28;20446;-76
2020/12/06 07:12:47;;;;;;;40.97;25.90;;;;;;;1.56;89.98;98670.00;5075456;28;20110;-77
2020/12/06 07:15:15;;;;;;;39.28;26.58;;;;;;;1.63;89.62;98673.19;5075438;28;20071;-77
2020/12/06 07:17:42;;;;;;;39.80;26.45;;;;;;;1.63;89.62;98665.28;5075327;28;20045;-77
2020/12/06 07:20:10;;;;;;;37.80;25.98;;;;;;;1.57;89.16;98658.56;5041315;28;20048;-77
2020/12/06 07:22:37;;;;;;;40.40;26.08;;;;;;;1.54;89.38;98665.75;5074027;28;20061;-76
2020/12/06 07:25:04;;;;;;;40.75;26.35;;;;;;;1.61;89.70;98682.94;5054990;28;20057;-77
2020/12/06 07:27:31;;;;;;;36.83;24.58;;;;;;;1.59;89.72;98685.63;5055168;28;20062;-75
2020/12/06 07:29:57;;;;;;;39.22;26.90;;;;;;;1.59;89.55;98680.38;5054011;28;20056;-76
2020/12/06 07:32:24;;;;;;;40.03;25.25;;;;;;;1.57;89.55;98676.13;5073545;28;20049;-74
2020/12/06 07:34:50;;;;;;;39.50;25.67;;;;;;;1.58;89.88;98677.84;5074860;28;20048;-75
2020/12/06 07:37:16;;;;;;;39.80;25.38;;;;;;;1.67;89.47;98672.13;5074990;28;20056;-75
2020/12/06 07:39:44;;;;;;;35.67;24.73;;;;;;;1.65;89.57;98671.34;5074870;28;20048;-75
2020/12/06 07:42:27;;;;;;;36.47;25.00;;;;;;;1.73;89.54;98686.75;5074917;28;20398;-77
2020/12/06 07:44:55;;;;;;;37.97;24.45;;;;;;;1.75;89.49;98690.16;5073901;28;20052;-75
2020/12/06 07:47:23;;;;;;;37.13;24.75;;;;;;;1.75;89.48;98696.28;5075128;28;20051;-75
2020/12/06 07:49:53;;;;;;;39.17;24.13;;;;;;;1.79;89.71;98704.03;5074841;28;20049;-75
2020/12/06 07:52:27;;;;;;;35.67;24.10;;;;;;;1.80;89.70;98703.94;5071846;28;20044;-75
2020/12/06 07:54:58;;;;;;;33.42;23.27;;;;;;;1.78;89.80;98705.78;5074448;28;20052;-76
2020/12/06 07:57:51;;;;;;;34.70;23.15;;;;;;;1.85;89.21;98712.47;5076495;28;20098;-78
2020/12/06 08:00:20;;;;;;;35.20;24.48;;;;;;;1.85;88.95;98712.47;5077834;28;20101;-76
2020/12/06 08:02:57;;;;;;;37.00;24.35;;;;;;;1.83;88.84;98713.47;5076496;28;20102;-73
2020/12/06 08:05:27;;;;;;;37.90;24.65;;;;;;;1.82;88.88;98714.38;5075484;28;20048;-74
2020/12/06 08:08:01;;;;;;;42.20;26.05;;;;;;;1.85;88.68;98709.84;5077423;28;20044;-75
2020/12/06 08:10:29;;;;;;;37.63;24.98;;;;;;;1.83;88.49;98708.19;5077129;28;20045;-76
2020/12/06 08:12:56;;;;;;;35.28;23.98;;;;;;;1.86;88.80;98702.81;5078527;28;20050;-75
2020/12/06 08:15:24;;;;;;;40.03;23.48;;;;;;;1.85;88.69;98695.84;5078203;28;20052;-74
2020/12/06 08:17:52;;;;;;;41.05;23.95;;;;;;;1.72;88.62;98683.28;5078568;28;20127;-79
2020/12/06 08:20:21;;;;;;;37.95;24.25;;;;;;;1.83;88.68;98695.91;5078418;28;20049;-77
2020/12/06 08:22:58;;;;;;;35.70;22.52;;;;;;;1.90;87.67;98684.16;5078240;28;20434;-76
2020/12/06 08:25:34;;;;;;;34.95;23.17;;;;;;;1.76;88.00;98681.34;5074539;28;20500;-76
2020/12/06 08:28:03;;;;;;;33.67;22.23;;;;;;;1.83;88.12;98697.66;5072672;28;20041;-76
2020/12/06 08:30:31;;;;;;;34.50;22.77;;;;;;;1.84;88.49;98691.47;5075291;28;20052;-76
2020/12/06 08:32:58;;;;;;;34.50;23.20;;;;;;;1.83;88.47;98695.91;5073044;28;20045;-75
2020/12/06 08:35:46;;;;;;;35.65;23.73;;;;;;;1.85;88.34;98693.22;5075069;28;20128;-80
2020/12/06 08:38:29;;;;;;;35.05;23.15;;;;;;;1.88;88.61;98679.91;5076418;28;20060;-75
2020/12/06 08:41:10;;;;;;;34.78;23.48;;;;;;;1.95;88.35;98690.97;5073456;28;20041;-77
2020/12/06 08:43:52;;;;;;;33.45;23.13;;;;;;;1.90;88.12;98688.56;5074052;28;20093;-75
2020/12/06 08:46:24;;;;;;;33.08;22.35;;;;;;;1.87;88.15;98686.09;5076953;28;20052;-78
2020/12/06 08:48:52;;;;;;;36.55;22.52;;;;;;;1.93;88.21;98693.69;5073395;28;20041;-76
2020/12/06 08:51:29;;;;;;;31.52;21.92;;;;;;;1.98;88.29;98694.31;5077772;28;20044;-76
2020/12/06 08:53:57;;;;;;;36.75;23.58;;;;;;;1.93;88.24;98696.31;5076582;28;20050;-78
2020/12/06 08:56:25;;;;;;;34.85;23.73;;;;;;;2.01;88.15;98688.88;5076899;28;20071;-79
2020/12/06 08:58:51;;;;;;;33.75;22.13;;;;;;;2.06;88.08;98688.66;5075585;28;20347;-74
2020/12/06 09:01:18;;;;;;;34.40;24.33;;;;;;;2.09;88.19;98698.19;5066178;28;20086;-74
2020/12/06 09:03:44;;;;;;;35.13;23.20;;;;;;;2.10;88.14;98699.88;5075102;28;20048;-74
2020/12/06 09:06:14;;;;;;;36.75;24.40;;;;;;;2.10;88.10;98684.94;5077420;28;20327;-74
2020/12/06 09:08:41;;;;;;;37.72;24.35;;;;;;;2.08;88.18;98685.94;5071006;28;20052;-77
2020/12/06 09:11:13;;;;;;;37.45;23.67;;;;;;;2.21;88.02;98704.59;5063551;28;20044;-77
2020/12/06 09:13:39;;;;;;;35.78;23.27;;;;;;;2.17;88.19;98701.28;5067991;28;20091;-76
2020/12/06 09:16:05;;;;;;;35.78;24.02;;;;;;;2.24;88.24;98712.38;5067052;28;20672;-76
2020/12/06 09:18:32;;;;;;;35.33;24.38;;;;;;;2.29;88.23;98713.81;5075333;28;20044;-76
2020/12/06 09:20:59;;;;;;;37.08;23.92;;;;;;;2.33;87.84;98709.25;5077296;28;20053;-77
2020/12/06 09:23:26;;;;;;;38.65;24.20;;;;;;;2.34;88.14;98710.13;5073808;28;20044;-76
2020/12/06 09:25:52;;;;;;;34.13;23.52;;;;;;;2.33;88.17;98700.53;5067200;28;20048;-75
2020/12/06 09:28:19;;;;;;;34.78;23.92;;;;;;;2.34;88.01;98702.22;5063034;28;20049;-75
2020/12/06 09:30:45;;;;;;;38.83;25.73;;;;;;;2.38;87.90;98703.75;5056842;28;20057;-77
2020/12/06 09:33:11;;;;;;;38.47;24.67;;;;;;;2.27;88.18;98686.72;5061028;28;20105;-77
2020/12/06 09:35:37;;;;;;;37.70;23.92;;;;;;;2.37;87.97;98676.59;5049967;28;20470;-76
2020/12/06 09:38:03;;;;;;;32.33;22.90;;;;;;;2.49;87.70;98684.75;5057089;28;20350;-76
2020/12/06 09:40:29;;;;;;;33.97;23.33;;;;;;;2.42;87.99;98679.84;5057183;28;20119;-76
2020/12/06 09:42:56;;;;;;;35.58;23.85;;;;;;;2.33;87.78;98669.75;5073156;28;20339;-77
2020/12/06 09:45:22;;;;;;;36.33;24.83;;;;;;;2.40;88.06;98692.22;5076648;28;20102;-76
2020/12/06 09:47:48;;;;;;;37.92;24.10;;;;;;;2.50;87.22;98697.03;5073305;28;20704;-78
2020/12/06 09:50:15;;;;;;;38.28;23.73;;;;;;;2.47;87.18;98692.78;5060250;28;20057;-78
2020/12/06 09:52:41;;;;;;;35.47;23.67;;;;;;;2.49;87.14;98685.63;5057059;28;20053;-78
2020/12/06 09:55:22;;;;;;;33.08;23.40;;;;;;;2.60;87.24;98692.97;5057260;28;20052;-78
2020/12/06 09:57:48;;;;;;;35.22;23.90;;;;;;;2.71;86.96;98689.78;5057029;28;20088;-78
2020/12/06 10:00:14;;;;;;;35.53;23.75;;;;;;;2.79;87.16;98694.66;5062678;28;20060;-77
2020/12/06 10:02:40;;;;;;;34.35;23.70;;;;;;;2.90;86.79;98694.09;5068650;28;20056;-77
2020/12/06 10:05:06;;;;;;;37.03;25.00;;;;;;;2.90;86.97;98700.22;5056609;28;20049;-77
2020/12/06 10:07:33;;;;;;;37.70;24.75;;;;;;;2.96;86.80;98707.78;5056406;28;20040;-77
2020/12/06 10:09:59;;;;;;;35.40;24.63;;;;;;;2.90;86.67;98689.69;5055604;28;20041;-76
2020/12/06 10:12:25;;;;;;;36.38;24.35;;;;;;;3.06;86.57;98700.22;5055015;28;20057;-77
2020/12/06 10:14:52;;;;;;;38.10;24.92;;;;;;;3.06;86.01;98697.59;5055568;28;20431;-77
2020/12/06 10:17:18;;;;;;;36.35;23.20;;;;;;;3.13;85.96;98708.69;5055412;28;20056;-79
2020/12/06 10:19:44;;;;;;;34.42;24.13;;;;;;;3.21;85.92;98708.28;5069826;28;20387;-76
2020/12/06 10:22:10;;;;;;;37.42;24.67;;;;;;;3.27;85.72;98702.63;5070682;28;20045;-78
2020/12/06 10:24:36;;;;;;;39.97;26.52;;;;;;;3.29;85.95;98694.66;5072883;28;20051;-78
2020/12/06 10:27:03;;;;;;;37.65;25.08;;;;;;;3.34;85.96;98687.34;5076440;28;20052;-79
2020/12/06 10:29:29;;;;;;;38.30;25.02;;;;;;;3.46;85.38;98677.91;5076404;28;20112;-78
2020/12/06 10:32:00;;;;;;;38.00;25.27;;;;;;;3.40;84.55;98690.47;5075967;28;20366;-76
2020/12/06 10:34:27;;;;;;;37.85;24.90;;;;;;;3.49;85.06;98699.69;5067415;28;20045;-77
2020/12/06 10:36:56;;;;;;;38.42;25.42;;;;;;;3.51;85.01;98699.59;5063511;28;20063;-77
2020/12/06 10:39:23;;;;;;;36.53;24.67;;;;;;;3.49;85.07;98698.84;5075685;28;20499;-74
2020/12/06 10:41:51;;;;;;;38.08;24.33;;;;;;;3.45;84.59;98697.31;5075674;28;20064;-75
2020/12/06 10:44:18;;;;;;;32.10;23.08;;;;;;;3.45;84.60;98695.53;5075641;28;20052;-74
2020/12/06 10:46:45;;;;;;;36.75;24.38;;;;;;;3.42;85.09;98700.13;5075827;28;20048;-76
2020/12/06 10:49:15;;;;;;;36.47;25.15;;;;;;;3.47;84.80;98698.06;5075836;28;20052;-72
2020/12/06 10:51:42;;;;;;;35.85;25.23;;;;;;;3.49;84.43;98690.94;5075404;28;20056;-76
2020/12/06 10:54:10;;;;;;;36.35;24.77;;;;;;;3.50;84.60;98695.25;5069488;28;20048;-74
2020/12/06 10:56:38;;;;;;;37.92;25.00;;;;;;;3.54;84.90;98715.25;5063895;28;20442;-75
2020/12/06 10:59:05;;;;;;;38.67;23.98;;;;;;;3.42;84.13;98693.03;5065751;28;20090;-76
2020/12/06 11:01:32;;;;;;;36.85;24.42;;;;;;;3.48;84.70;98712.97;5063621;28;20110;-71
2020/12/06 11:03:59;;;;;;;34.42;23.67;;;;;;;3.53;84.81;98721.47;5056977;28;20053;-75
2020/12/06 11:06:27;;;;;;;33.25;23.92;;;;;;;3.56;84.65;98712.53;5076890;28;20346;-79
2020/12/06 11:08:53;;;;;;;34.08;23.77;;;;;;;3.58;84.70;98706.22;5063080;28;20401;-76
2020/12/06 11:11:21;;;;;;;37.13;23.95;;;;;;;3.61;84.81;98706.09;5075567;28;20052;-78
2020/12/06 11:13:48;;;;;;;37.05;24.95;;;;;;;3.65;85.26;98717.31;5069381;28;20053;-75
2020/12/06 11:16:16;;;;;;;39.63;25.80;;;;;;;3.74;84.95;98714.16;5069205;28;20057;-72
2020/12/06 11:18:43;;;;;;;39.22;24.80;;;;;;;3.86;83.99;98714.41;5063295;28;20516;-73
2020/12/06 11:21:10;;;;;;;37.92;25.80;;;;;;;3.86;84.19;98725.78;5065298;28;20101;-74
2020/12/06 11:23:36;;;;;;;41.95;26.88;;;;;;;3.95;84.23;98727.06;5064082;28;20377;-72
2020/12/06 11:26:03;;;;;;;38.22;25.42;;;;;;;4.07;83.71;98722.88;5053714;28;20510;-75
2020/12/06 11:28:29;;;;;;;37.10;25.05;;;;;;;4.12;83.21;98710.25;5055168;28;20056;-75
2020/12/06 11:30:55;;;;;;;39.38;26.17;;;;;;;4.28;83.31;98704.94;5054380;28;20439;-76